createdAt,value
2017-07-03T00:01:34.332Z,101263.23
2017-07-03T00:04:02.730Z,101267.42
2017-07-03T00:06:31.516Z,101275.17
2017-07-03T00:09:01.032Z,101280.29
2017-07-03T00:11:29.475Z,101277.30
2017-07-03T00:13:58.196Z,101282.08
2017-07-03T00:16:26.976Z,101272.74
2017-07-03T00:18:55.782Z,101266.71
2017-07-03T00:21:24.462Z,101272.52
2017-07-03T00:23:52.882Z,101280.20
2017-07-03T00:26:21.271Z,101271.90
2017-07-03T00:28:49.657Z,101277.41
2017-07-03T00:31:18.070Z,101284.83
2017-07-03T00:33:46.852Z,101283.66
2017-07-03T00:36:16.158Z,101281.33
2017-07-03T00:38:44.545Z,101285.30
2017-07-03T00:41:13.333Z,101287.27
2017-07-03T00:43:42.123Z,101287.00
2017-07-03T00:46:10.932Z,101293.41
2017-07-03T00:48:39.326Z,101291.58
2017-07-03T00:51:08.180Z,101295.75
2017-07-03T00:53:36.556Z,101298.69
2017-07-03T00:56:04.942Z,101294.36
2017-07-03T00:58:33.336Z,101292.22
2017-07-03T01:01:02.132Z,101288.83
2017-07-03T01:03:30.535Z,101297.36
2017-07-03T01:05:59.618Z,101298.33
2017-07-03T01:08:28.123Z,101298.13
2017-07-03T01:10:56.512Z,101295.19
2017-07-03T01:13:25.234Z,101300.26
2017-07-03T01:15:53.630Z,101303.05
2017-07-03T01:18:22.937Z,101307.95
2017-07-03T01:20:51.961Z,101304.55
2017-07-03T01:23:20.349Z,101301.89
2017-07-03T01:25:49.460Z,101300.02
2017-07-03T01:28:17.841Z,101304.02
2017-07-03T01:30:46.249Z,101305.19
2017-07-03T01:33:14.662Z,101307.05
2017-07-03T01:35:43.061Z,101299.75
2017-07-03T01:38:11.448Z,101308.80
2017-07-03T01:40:39.881Z,101315.00
2017-07-03T01:43:08.665Z,101307.53
2017-07-03T01:45:37.665Z,101313.43
2017-07-03T01:48:07.044Z,101312.56
2017-07-03T01:50:35.433Z,101313.56
2017-07-03T01:53:03.843Z,101316.62
2017-07-03T01:55:32.224Z,101313.49
2017-07-03T01:58:00.638Z,101316.48
2017-07-03T02:00:29.024Z,101315.77
2017-07-03T02:02:57.424Z,101312.67
2017-07-03T02:05:25.837Z,101321.02
2017-07-03T02:07:54.747Z,101314.08
2017-07-03T02:10:23.135Z,101321.45
2017-07-03T02:12:51.521Z,101325.08
2017-07-03T02:15:19.939Z,101322.88
2017-07-03T02:17:48.338Z,101326.59
2017-07-03T02:20:17.446Z,101321.61
2017-07-03T02:22:46.237Z,101321.80
2017-07-03T02:25:15.417Z,101330.69
2017-07-03T02:27:43.797Z,101330.31
2017-07-03T02:30:12.501Z,101338.83
2017-07-03T02:32:41.376Z,101337.87
2017-07-03T02:35:09.777Z,101345.08
2017-07-03T02:37:38.189Z,101357.66
2017-07-03T02:40:06.583Z,101349.66
2017-07-03T02:42:34.981Z,101354.84
2017-07-03T02:45:03.361Z,101355.67
2017-07-03T02:47:32.082Z,101360.66
2017-07-03T02:50:00.860Z,101366.52
2017-07-03T02:52:30.426Z,101358.61
2017-07-03T02:54:58.896Z,101361.42
2017-07-03T02:57:27.290Z,101366.23
2017-07-03T02:59:55.702Z,101366.20
2017-07-03T03:02:24.493Z,101363.38
2017-07-03T03:04:52.981Z,101365.52
2017-07-03T03:07:22.261Z,101369.43
2017-07-03T03:09:50.656Z,101365.22
2017-07-03T03:12:19.703Z,101369.19
2017-07-03T03:14:48.109Z,101369.37
2017-07-03T03:17:16.487Z,101373.22
2017-07-03T03:19:45.149Z,101368.66
2017-07-03T03:22:13.589Z,101375.45
2017-07-03T03:24:42.373Z,101371.20
2017-07-03T03:27:10.772Z,101374.02
2017-07-03T03:29:40.517Z,101376.03
2017-07-03T03:32:09.166Z,101378.08
2017-07-03T03:34:37.954Z,101382.66
2017-07-03T03:37:06.763Z,101384.61
2017-07-03T03:39:35.151Z,101379.23
2017-07-03T03:42:03.915Z,101385.01
2017-07-03T03:44:32.711Z,101391.48
2017-07-03T03:47:01.103Z,101390.66
2017-07-03T03:49:29.514Z,101383.49
2017-07-03T03:51:58.609Z,101387.46
2017-07-03T03:54:27.004Z,101380.75
2017-07-03T03:56:55.398Z,101387.08
2017-07-03T03:59:23.798Z,101385.02
2017-07-03T04:01:52.693Z,101382.11
2017-07-03T04:04:21.679Z,101383.48
2017-07-03T04:06:50.472Z,101382.64
2017-07-03T04:09:19.264Z,101386.08
2017-07-03T04:11:48.066Z,101386.00
2017-07-03T04:14:16.458Z,101390.66
2017-07-03T04:16:44.869Z,101390.75
2017-07-03T04:19:13.252Z,101393.58
2017-07-03T04:21:41.650Z,101390.22
2017-07-03T04:24:10.645Z,101387.41
2017-07-03T04:26:39.045Z,101395.63
2017-07-03T04:29:08.745Z,101390.33
2017-07-03T04:31:37.325Z,101384.22
2017-07-03T04:34:05.737Z,101388.73
2017-07-03T04:36:34.163Z,101389.00
2017-07-03T04:39:02.570Z,101392.20
2017-07-03T04:41:30.962Z,101384.52
2017-07-03T04:43:59.767Z,101384.92
2017-07-03T04:46:28.178Z,101384.52
2017-07-03T04:48:56.714Z,101384.39
2017-07-03T04:51:25.496Z,101383.70
2017-07-03T04:53:53.909Z,101374.13
2017-07-03T04:56:22.322Z,101376.56
2017-07-03T04:58:50.718Z,101376.81
2017-07-03T05:01:19.966Z,101378.11
2017-07-03T05:03:49.475Z,101379.95
2017-07-03T05:06:18.040Z,101379.03
2017-07-03T05:08:46.437Z,101382.19
2017-07-03T05:11:14.832Z,101387.00
2017-07-03T05:13:43.590Z,101394.95
2017-07-03T05:16:11.972Z,101389.02
2017-07-03T05:18:40.772Z,101393.43
2017-07-03T05:21:09.161Z,101391.79
2017-07-03T05:23:37.567Z,101395.88
2017-07-03T05:26:05.957Z,101397.34
2017-07-03T05:28:34.577Z,101394.00
2017-07-03T05:31:03.364Z,101410.63
2017-07-03T05:33:32.235Z,101406.22
2017-07-03T05:36:00.650Z,101409.23
2017-07-03T05:38:29.437Z,101409.45
2017-07-03T05:40:58.413Z,101400.55
2017-07-03T05:43:32.278Z,101415.20
2017-07-03T05:46:00.690Z,101405.81
2017-07-03T05:48:29.087Z,101411.27
2017-07-03T05:50:57.893Z,101410.09
2017-07-03T05:53:26.283Z,101408.94
2017-07-03T05:55:54.987Z,101410.57
2017-07-03T05:58:23.397Z,101415.36
2017-07-03T06:00:51.805Z,101408.38
2017-07-03T06:03:20.506Z,101408.27
2017-07-03T06:05:49.838Z,101417.21
2017-07-03T06:08:18.241Z,101412.98
2017-07-03T06:10:46.874Z,101417.32
2017-07-03T06:13:15.282Z,101415.73
2017-07-03T06:15:45.267Z,101416.37
2017-07-03T06:18:13.855Z,101413.93
2017-07-03T06:20:42.246Z,101416.52
2017-07-03T06:23:10.654Z,101417.94
2017-07-03T06:25:39.053Z,101415.28
2017-07-03T06:28:09.144Z,101418.02
2017-07-03T06:30:37.561Z,101421.71
2017-07-03T06:33:06.355Z,101417.50
2017-07-03T06:35:34.770Z,101413.01
2017-07-03T06:38:03.862Z,101415.81
2017-07-03T06:40:32.431Z,101421.95
2017-07-03T06:43:01.266Z,101422.19
2017-07-03T06:45:29.923Z,101411.33
2017-07-03T06:47:58.730Z,101416.25
2017-07-03T06:50:27.358Z,101425.05
2017-07-03T06:52:55.775Z,101425.10
2017-07-03T06:55:24.566Z,101423.73
2017-07-03T06:57:53.368Z,101418.83
2017-07-03T07:00:22.326Z,101420.84
2017-07-03T07:02:51.135Z,101413.90
2017-07-03T07:05:19.531Z,101419.00
2017-07-03T07:07:47.935Z,101416.28
2017-07-03T07:10:16.345Z,101411.80
2017-07-03T07:12:44.726Z,101412.45
2017-07-03T07:15:13.139Z,101416.37
2017-07-03T07:17:42.382Z,101410.70
2017-07-03T07:20:11.122Z,101404.94
2017-07-03T07:22:39.518Z,101409.80
2017-07-03T07:25:07.926Z,101410.06
2017-07-03T07:27:36.367Z,101413.73
2017-07-03T07:30:04.762Z,101409.89
2017-07-03T07:32:33.185Z,101410.32
2017-07-03T07:35:01.582Z,101405.01
2017-07-03T07:37:30.804Z,101408.89
2017-07-03T07:39:59.202Z,101414.17
2017-07-03T07:42:27.766Z,101407.67
2017-07-03T07:44:56.174Z,101413.14
2017-07-03T07:47:24.583Z,101410.57
2017-07-03T07:49:52.995Z,101402.62
2017-07-03T07:52:21.391Z,101406.39
2017-07-03T07:54:50.080Z,101400.63
2017-07-03T07:57:19.443Z,101403.26
2017-07-03T07:59:47.840Z,101404.20
2017-07-03T08:02:16.228Z,101398.88
2017-07-03T08:04:44.626Z,101410.66
2017-07-03T08:07:13.411Z,101400.03
2017-07-03T08:09:42.300Z,101410.33
2017-07-03T08:12:10.688Z,101396.96
2017-07-03T08:14:39.072Z,101404.84
2017-07-03T08:17:07.490Z,101398.82
2017-07-03T08:19:35.883Z,101400.00
2017-07-03T08:22:04.292Z,101409.65
2017-07-03T08:24:32.685Z,101409.80
2017-07-03T08:27:01.506Z,101397.45
2017-07-03T08:29:29.901Z,101398.73
2017-07-03T08:31:58.846Z,101397.70
2017-07-03T08:34:27.629Z,101399.02
2017-07-03T08:36:57.759Z,101401.39
2017-07-03T08:39:26.557Z,101404.23
2017-07-03T08:41:55.231Z,101401.08
2017-07-03T08:44:24.039Z,101396.69
2017-07-03T08:46:52.429Z,101395.16
2017-07-03T08:49:20.833Z,101400.72
2017-07-03T08:51:49.217Z,101400.00
2017-07-03T08:54:18.541Z,101397.77
2017-07-03T08:56:47.624Z,101396.29
2017-07-03T08:59:16.347Z,101395.05
2017-07-03T09:01:45.147Z,101397.73
2017-07-03T09:04:13.544Z,101400.16
2017-07-03T09:06:41.953Z,101395.81
2017-07-03T09:09:10.411Z,101393.70
2017-07-03T09:11:39.539Z,101395.12
2017-07-03T09:14:07.935Z,101393.41
2017-07-03T09:16:37.161Z,101389.59
2017-07-03T09:19:05.566Z,101391.98
2017-07-03T09:21:34.002Z,101381.30
2017-07-03T09:24:02.407Z,101388.99
2017-07-03T09:26:31.069Z,101379.84
2017-07-03T09:28:59.858Z,101389.22
2017-07-03T09:31:28.634Z,101383.66
2017-07-03T09:33:57.500Z,101372.82
2017-07-03T09:36:25.888Z,101375.22
2017-07-03T09:38:54.302Z,101372.84
2017-07-03T09:41:23.090Z,101372.33
2017-07-03T09:43:52.200Z,101358.33
2017-07-03T09:46:21.011Z,101373.53
2017-07-03T09:48:49.406Z,101377.05
2017-07-03T09:51:17.817Z,101375.83
2017-07-03T09:53:46.208Z,101374.63
2017-07-03T09:56:14.622Z,101365.98
2017-07-03T09:58:43.009Z,101362.67
2017-07-03T10:01:11.547Z,101357.72
2017-07-03T10:03:40.042Z,101365.25
2017-07-03T10:06:08.820Z,101361.97
2017-07-03T10:08:37.227Z,101356.10
2017-07-03T10:11:05.625Z,101360.00
2017-07-03T10:13:34.026Z,101360.70
2017-07-03T10:16:02.426Z,101359.77
2017-07-03T10:18:31.752Z,101364.59
2017-07-03T10:21:00.141Z,101363.89
2017-07-03T10:23:29.248Z,101369.23
2017-07-03T10:25:57.663Z,101365.31
2017-07-03T10:28:26.048Z,101361.94
2017-07-03T10:30:54.470Z,101362.66
2017-07-03T10:33:23.168Z,101357.83
2017-07-03T10:35:51.982Z,101364.84
2017-07-03T10:38:20.370Z,101356.67
2017-07-03T10:40:48.805Z,101363.94
2017-07-03T10:43:17.708Z,101348.79
2017-07-03T10:45:46.354Z,101341.70
2017-07-03T10:48:14.765Z,101338.42
2017-07-03T10:50:43.771Z,101333.58
2017-07-03T10:53:12.565Z,101337.27
2017-07-03T10:55:41.341Z,101332.19
2017-07-03T10:58:09.751Z,101329.21
2017-07-03T11:00:38.140Z,101333.88
2017-07-03T11:03:06.550Z,101333.56
2017-07-03T11:05:34.954Z,101332.73
2017-07-03T11:08:03.757Z,101341.22
2017-07-03T11:10:32.583Z,101331.22
2017-07-03T11:13:01.215Z,101335.23
2017-07-03T11:15:29.610Z,101324.29
2017-07-03T11:17:58.183Z,101319.39
2017-07-03T11:20:26.574Z,101331.06
2017-07-03T11:22:55.380Z,101325.47
2017-07-03T11:25:23.782Z,101326.45
2017-07-03T11:27:52.184Z,101316.69
2017-07-03T11:30:20.590Z,101317.38
2017-07-03T11:32:49.078Z,101323.59
2017-07-03T11:35:18.065Z,101321.52
2017-07-03T11:37:46.768Z,101320.23
2017-07-03T11:40:15.549Z,101318.29
2017-07-03T11:42:44.356Z,101322.00
2017-07-03T11:45:12.763Z,101316.08
2017-07-03T11:47:41.157Z,101316.59
2017-07-03T11:50:09.547Z,101308.56
2017-07-03T11:52:37.949Z,101304.99
2017-07-03T11:55:06.345Z,101314.19
2017-07-03T11:57:35.365Z,101317.56
2017-07-03T12:00:03.761Z,101307.06
2017-07-03T12:02:32.291Z,101304.80
2017-07-03T12:05:00.676Z,101301.21
2017-07-03T12:07:29.477Z,101302.30
2017-07-03T12:09:57.882Z,101312.58
2017-07-03T12:12:26.270Z,101301.58
2017-07-03T12:14:54.675Z,101305.42
2017-07-03T12:17:23.074Z,101289.52
2017-07-03T12:19:51.664Z,101299.56
2017-07-03T12:22:20.120Z,101287.96
2017-07-03T12:24:48.512Z,101286.98
2017-07-03T12:27:16.926Z,101283.74
2017-07-03T12:29:46.670Z,101290.20
2017-07-03T12:32:15.119Z,101289.69
2017-07-03T12:34:43.600Z,101275.47
2017-07-03T12:37:12.422Z,101272.23
2017-07-03T12:39:40.822Z,101279.38
2017-07-03T12:42:09.236Z,101278.08
2017-07-03T12:44:37.634Z,101276.36
2017-07-03T12:47:06.237Z,101282.33
2017-07-03T12:49:34.636Z,101267.56
2017-07-03T12:52:03.040Z,101265.13
2017-07-03T12:54:31.452Z,101270.50
2017-07-03T12:57:00.250Z,101269.09
2017-07-03T12:59:29.045Z,101269.31
2017-07-03T13:01:57.454Z,101275.20
2017-07-03T13:04:25.878Z,101269.67
2017-07-03T13:06:54.270Z,101261.45
2017-07-03T13:09:23.087Z,101259.77
2017-07-03T13:11:51.503Z,101259.05
2017-07-03T13:14:20.122Z,101260.72
2017-07-03T13:16:48.923Z,101252.16
2017-07-03T13:19:17.717Z,101250.83
2017-07-03T13:21:46.135Z,101251.77
2017-07-03T13:24:15.221Z,101251.86
2017-07-03T13:26:43.639Z,101253.69
2017-07-03T13:29:12.029Z,101243.06
2017-07-03T13:31:40.447Z,101237.89
2017-07-03T13:34:08.833Z,101236.53
2017-07-03T13:36:37.262Z,101231.23
2017-07-03T13:39:05.668Z,101219.74
2017-07-03T13:41:34.645Z,101223.37
2017-07-03T13:44:03.024Z,101227.75
2017-07-03T13:46:32.136Z,101216.73
2017-07-03T13:49:01.515Z,101208.73
2017-07-03T13:51:29.923Z,101212.95
2017-07-03T13:53:58.801Z,101199.66
2017-07-03T13:56:27.594Z,101204.06
2017-07-03T13:58:56.722Z,101201.88
2017-07-03T14:01:25.123Z,101204.09
2017-07-03T14:03:53.873Z,101202.42
2017-07-03T14:06:22.814Z,101199.84
2017-07-03T14:08:51.559Z,101198.59
2017-07-03T14:11:20.731Z,101189.27
2017-07-03T14:13:49.440Z,101187.16
2017-07-03T14:16:17.849Z,101178.11
2017-07-03T14:18:46.248Z,101182.47
2017-07-03T14:21:14.667Z,101182.03
2017-07-03T14:23:43.061Z,101173.73
2017-07-03T14:26:11.620Z,101172.64
2017-07-03T14:28:40.019Z,101178.47
2017-07-03T14:31:08.803Z,101183.91
2017-07-03T14:33:37.609Z,101167.41
2017-07-03T14:36:06.007Z,101171.05
2017-07-03T14:38:34.474Z,101156.11
2017-07-03T14:41:02.938Z,101152.05
2017-07-03T14:43:31.759Z,101152.95
2017-07-03T14:46:00.158Z,101160.19
2017-07-03T14:48:28.583Z,101152.31
2017-07-03T14:50:58.061Z,101152.58
2017-07-03T14:53:26.492Z,101147.46
2017-07-03T14:55:54.883Z,101145.73
2017-07-03T14:58:24.251Z,101145.06
2017-07-03T15:00:53.042Z,101138.59
2017-07-03T15:03:22.460Z,101135.47
2017-07-03T15:05:51.645Z,101134.78
2017-07-03T15:08:20.438Z,101131.58
2017-07-03T15:10:49.233Z,101131.75
2017-07-03T15:13:18.015Z,101126.22
2017-07-03T15:15:47.091Z,101114.33
2017-07-03T15:18:15.477Z,101125.03
2017-07-03T15:20:43.903Z,101121.74
2017-07-03T15:23:12.285Z,101122.05
2017-07-03T15:25:40.839Z,101123.39
2017-07-03T15:28:09.631Z,101117.11
2017-07-03T15:30:38.042Z,101119.08
2017-07-03T15:33:06.479Z,101112.27
2017-07-03T15:35:35.590Z,101108.64
2017-07-03T15:38:04.399Z,101106.62
2017-07-03T15:40:32.788Z,101094.09
2017-07-03T15:43:01.438Z,101094.80
2017-07-03T15:45:30.216Z,101095.41
2017-07-03T15:47:58.618Z,101089.02
2017-07-03T15:50:27.038Z,101087.08
2017-07-03T15:52:55.803Z,101077.94
2017-07-03T15:55:24.210Z,101076.75
2017-07-03T15:57:52.606Z,101074.21
2017-07-03T16:00:21.019Z,101070.19
2017-07-03T16:02:49.807Z,101069.61
2017-07-03T16:05:18.609Z,101064.39
2017-07-03T16:07:47.011Z,101058.88
2017-07-03T16:10:15.408Z,101063.55
2017-07-03T16:12:43.798Z,101069.50
2017-07-03T16:15:12.733Z,101061.10
2017-07-03T16:17:41.525Z,101065.69
2017-07-03T16:20:10.627Z,101051.80
2017-07-03T16:22:39.033Z,101052.36
2017-07-03T16:25:07.650Z,101049.52
2017-07-03T16:27:36.089Z,101047.31
2017-07-03T16:30:04.486Z,101046.25
2017-07-03T16:32:32.892Z,101042.72
2017-07-03T16:35:01.275Z,101049.91
2017-07-03T16:37:29.675Z,101046.17
2017-07-03T16:39:58.453Z,101038.45
2017-07-03T16:42:27.166Z,101034.72
2017-07-03T16:44:55.944Z,101033.51
2017-07-03T16:47:24.725Z,101037.44
2017-07-03T16:49:53.937Z,101035.39
2017-07-03T16:52:22.720Z,101030.22
2017-07-03T16:54:51.516Z,101032.63
2017-07-03T16:57:20.712Z,101035.44
2017-07-03T16:59:49.503Z,101021.42
2017-07-03T17:02:18.603Z,101020.52
2017-07-03T17:04:47.437Z,101012.05
2017-07-03T17:07:15.851Z,101018.00
2017-07-03T17:09:44.290Z,101017.25
2017-07-03T17:12:12.705Z,101014.03
2017-07-03T17:14:41.905Z,101015.44
2017-07-03T17:17:11.926Z,101016.72
2017-07-03T17:19:40.312Z,101005.98
2017-07-03T17:22:08.710Z,101007.88
2017-07-03T17:24:37.505Z,101004.77
2017-07-03T17:27:06.299Z,101002.06
2017-07-03T17:29:34.703Z,101003.18
2017-07-03T17:32:03.140Z,101005.83
2017-07-03T17:34:32.143Z,101004.52
2017-07-03T17:37:00.969Z,101016.87
2017-07-03T17:39:29.366Z,101012.22
2017-07-03T17:41:57.765Z,101018.86
2017-07-03T17:44:27.137Z,101010.83
2017-07-03T17:46:55.544Z,101008.19
2017-07-03T17:49:23.950Z,101002.30
2017-07-03T17:51:52.950Z,101002.92
2017-07-03T17:54:22.045Z,101000.61
2017-07-03T17:56:50.837Z,100996.83
2017-07-03T17:59:19.629Z,101002.61
2017-07-03T18:01:49.241Z,100997.75
2017-07-03T18:04:18.053Z,100996.71
2017-07-03T18:06:46.450Z,100994.35
2017-07-03T18:09:15.078Z,100993.02
2017-07-03T18:11:43.484Z,100986.12
2017-07-03T18:14:11.874Z,100994.87
2017-07-03T18:16:40.380Z,100992.12
2017-07-03T18:19:08.779Z,100991.27
2017-07-03T18:21:37.507Z,100993.97
2017-07-03T18:24:06.293Z,100987.98
2017-07-03T18:26:35.390Z,100990.05
2017-07-03T18:29:04.182Z,100988.20
2017-07-03T18:31:32.714Z,100984.29
2017-07-03T18:34:01.341Z,100986.13
2017-07-03T18:36:30.363Z,100992.16
2017-07-03T18:38:58.769Z,100985.47
2017-07-03T18:41:27.159Z,100997.06
2017-07-03T18:43:55.578Z,100992.67
2017-07-03T18:46:24.364Z,100986.80
2017-07-03T18:48:52.935Z,100982.08
2017-07-03T18:51:21.326Z,100982.77
2017-07-03T18:53:50.123Z,100981.98
2017-07-03T18:56:19.864Z,100982.48
2017-07-03T18:58:48.266Z,100978.02
2017-07-03T19:01:16.674Z,100975.45
2017-07-03T19:03:45.386Z,100974.78
2017-07-03T19:06:15.506Z,100963.10
2017-07-03T19:08:44.299Z,100967.97
2017-07-03T19:11:13.901Z,100973.69
2017-07-03T19:13:42.326Z,100967.72
2017-07-03T19:16:10.722Z,100967.05
2017-07-03T19:18:39.129Z,100969.94
2017-07-03T19:21:07.934Z,100965.89
2017-07-03T19:23:37.117Z,100968.16
2017-07-03T19:26:05.937Z,100962.39
2017-07-03T19:28:34.326Z,100965.14
2017-07-03T19:31:02.749Z,100960.44
2017-07-03T19:33:32.123Z,100953.48
2017-07-03T19:36:00.530Z,100955.09
2017-07-03T19:38:29.254Z,100957.41
2017-07-03T19:40:58.056Z,100957.23
2017-07-03T19:43:26.441Z,100960.97
2017-07-03T19:45:54.989Z,100965.19
2017-07-03T19:48:23.389Z,100966.81
2017-07-03T19:50:52.274Z,100963.94
2017-07-03T19:53:21.077Z,100959.86
2017-07-03T19:55:49.469Z,100961.95
2017-07-03T19:58:17.875Z,100954.56
2017-07-03T20:00:46.886Z,100957.02
2017-07-03T20:03:15.629Z,100957.88
2017-07-03T20:05:44.028Z,100959.05
2017-07-03T20:08:12.424Z,100964.81
2017-07-03T20:10:40.845Z,100961.81
2017-07-03T20:13:09.624Z,100960.40
2017-07-03T20:15:38.062Z,100962.55
2017-07-03T20:18:06.541Z,100959.81
2017-07-03T20:20:34.955Z,100962.50
2017-07-03T20:23:03.353Z,100961.02
2017-07-03T20:25:32.145Z,100963.73
2017-07-03T20:28:01.869Z,100957.47
2017-07-03T20:30:30.641Z,100960.53
2017-07-03T20:32:59.504Z,100960.23
2017-07-03T20:35:27.903Z,100961.03
2017-07-03T20:37:56.308Z,100961.03
2017-07-03T20:40:24.977Z,100958.19
2017-07-03T20:42:53.784Z,100957.82
2017-07-03T20:45:22.877Z,100959.59
2017-07-03T20:47:52.704Z,100954.52
2017-07-03T20:50:21.099Z,100957.33
2017-07-03T20:52:49.615Z,100943.20
2017-07-03T20:55:18.019Z,100943.94
2017-07-03T20:57:46.864Z,100939.09
2017-07-03T21:00:15.270Z,100939.44
2017-07-03T21:02:43.664Z,100937.90
2017-07-03T21:05:12.248Z,100942.44
2017-07-03T21:07:40.682Z,100941.61
2017-07-03T21:10:09.088Z,100939.34
2017-07-03T21:12:37.491Z,100933.60
2017-07-03T21:15:06.296Z,100938.14
2017-07-03T21:17:35.084Z,100939.06
2017-07-03T21:20:03.474Z,100933.48
2017-07-03T21:22:32.269Z,100934.22
2017-07-03T21:25:01.822Z,100938.39
2017-07-03T21:27:30.239Z,100939.06
2017-07-03T21:30:00.058Z,100937.08
2017-07-03T21:32:28.868Z,100943.91
2017-07-03T21:34:57.492Z,100944.09
2017-07-03T21:37:26.206Z,100945.32
2017-07-03T21:39:54.997Z,100953.30
2017-07-03T21:42:23.381Z,100948.14
2017-07-03T21:44:52.180Z,100941.25
2017-07-03T21:47:21.280Z,100951.06
2017-07-03T21:49:50.082Z,100941.38
2017-07-03T21:52:19.546Z,100949.04
2017-07-03T21:54:47.949Z,100949.59
2017-07-03T21:57:16.744Z,100942.59
2017-07-03T21:59:45.186Z,100945.52
2017-07-03T22:02:13.909Z,100947.05
2017-07-03T22:04:42.813Z,100943.13
2017-07-03T22:07:11.193Z,100942.23
2017-07-03T22:09:39.581Z,100941.56
2017-07-03T22:12:08.248Z,100941.92
2017-07-03T22:14:37.040Z,100944.95
2017-07-03T22:17:05.841Z,100944.22
2017-07-03T22:19:35.025Z,100937.34
2017-07-03T22:22:03.817Z,100933.02
2017-07-03T22:24:33.251Z,100940.44
2017-07-03T22:27:02.242Z,100928.81
2017-07-03T22:29:30.638Z,100936.17
2017-07-03T22:31:59.184Z,100926.36
2017-07-03T22:34:27.570Z,100922.16
2017-07-03T22:36:55.968Z,100931.30
2017-07-03T22:39:24.375Z,100932.27
2017-07-03T22:41:52.769Z,100927.37
2017-07-03T22:44:21.485Z,100928.41
2017-07-03T22:46:51.503Z,100932.08
2017-07-03T22:49:20.310Z,100931.16
2017-07-03T22:51:48.981Z,100927.20
2017-07-03T22:54:17.866Z,100922.42
2017-07-03T22:56:46.653Z,100930.58
2017-07-03T22:59:15.633Z,100927.02
2017-07-03T23:01:44.182Z,100931.49
2017-07-03T23:04:13.348Z,100930.95
2017-07-03T23:06:41.758Z,100927.64
2017-07-03T23:09:10.302Z,100928.86
2017-07-03T23:11:39.123Z,100929.64
2017-07-03T23:14:07.516Z,100930.83
2017-07-03T23:16:35.949Z,100935.61
2017-07-03T23:19:04.725Z,100937.88
2017-07-03T23:21:33.920Z,100934.38
2017-07-03T23:24:02.300Z,100939.61
2017-07-03T23:26:30.777Z,100946.23
2017-07-03T23:28:59.186Z,100945.44
2017-07-03T23:31:27.866Z,100953.33
2017-07-03T23:33:57.378Z,100947.08
2017-07-03T23:36:25.902Z,100957.38
2017-07-03T23:38:54.734Z,100950.75
2017-07-03T23:41:23.126Z,100955.28
2017-07-03T23:43:51.919Z,100963.48
2017-07-03T23:46:20.597Z,100961.89
2017-07-03T23:48:49.394Z,100960.67
2017-07-03T23:51:18.188Z,100958.31
2017-07-03T23:53:46.572Z,100967.97
2017-07-03T23:56:14.982Z,100959.48
2017-07-03T23:58:43.424Z,100961.58
